Tiempo atmosférico en la estación meteorológica de Autilla del Pino, Palencia (874 m.)



Fecha
DESCASC
Temp. máxima en grados centígrados (hora)
DESCASC
Temp. mínima en grados centígrados (hora)
DESCASC
Temp. media en grados centígrados
DESCASC
Racha de viento máxima en m/sg (hora)
DESCASC
Velocidad máxima media en intervalos de 10 minutos(hora)
DESCASC
Precipitaciones diarias en mm
DESCASC
Precipitaciones de 00:00 a 06:00 en mm
DESCASC
Precipitaciones de 06:00 a 12:00 en mm
DESCASC
Precipitaciones de 12:00 a 18:00 en mm
DESCASC
Precipitaciones de 18:00 a 24:00 en mm
DESCASC
18-02-2018 11.2 (16:20) -3.6 (07:50) 3.8 9.44 (16:50) 7.22 (16:50) 0 0 0 0 0
17-02-2018 9.1 (16:20) 0.7 (23:50) 4.9 8.89 (03:10) 6.67 (19:50) 0 0 0 0 0
16-02-2018 13.1 (16:20) 6.2 (23:30) 9.7 8.61 (01:10) 6.67 (01:10) 0 0 0 0 0
15-02-2018 11.3 (15:40) 6.7 (00:00) 9 11.94 (00:20) 9.17 (00:20) 0 0 0 0 0
14-02-2018 7.8 (18:50) 4.2 (00:00) 6 15.83 (13:40) 11.94 (14:10) 0 0 0 0 0
13-02-2018 5.1 (22:50) -6.3 (-00:0) -0.6 15 (22:50) 11.39 (13:50) 0 0 0 0 0
12-02-2018 6.4 (15:40) -3.5 (-00:0) 1.5 12.22 (16:00) 8.06 (16:00) 0 0 0 0 0
11-02-2018 11.2 (13:40) 0.4 (00:00) 5.8 13.89 (16:50) 9.17 (16:50) 0 0 0 0 0
10-02-2018 8.3 (16:20) -5.1 (-00:0) 1.6 8.61 (14:20) 6.39 (14:20) 0 0 0 0 0
09-02-2018 8.9 (15:50) -5.7 (-00:0) 1.6 10.56 (18:00) 6.94 (17:40) 0 0 0 0 0
08-02-2018 3.6 (15:40) -7.6 (-00:0) -2 5.28 (13:40) 3.61 (10:50) 0 0 0 0 0
07-02-2018 3.7 (14:20) -5.7 (-00:0) -1 12.5 (13:20) 8.89 (12:20) 0 0 0 0 0
06-02-2018 3.5 (17:00) -3.9 (-00:0) -0.2 11.11 (03:50) 7.5 (01:00) 0 0 0 0 0
05-02-2018 3.1 (13:20) -3.3 (-00:0) -0.1 15.83 (11:40) 11.39 (12:10) 0 0 0 0 0
04-02-2018 5.3 (15:30) -1.7 (-00:0) 1.8 11.11 (14:20) 7.5 (14:30) 0 0 0 0 0
03-02-2018 6 (16:30) -4.3 (-00:0) 0.8 12.5 (17:50) 9.17 (13:30) 0 0 0 0 0
02-02-2018 5.5 (15:30) -4.9 (-00:0) 0.3 8.06 (13:30) 5.83 (13:40) 0 0 0 0 0
01-02-2018 7.1 (13:20) -3.3 (-00:0) 1.9 19.17 (16:20) 10.28 (13:40) 0 0 0 0 0
31-01-2018 12 (16:30) -2.4 (-00:0) 4.8 6.39 (15:00) 4.17 (15:10) 0 0 0 0 0
30-01-2018 12 (15:30) -0.6 (-00:0) 5.7 6.11 (02:50) 5.28 (02:10) 0 0 0 0 0
29-01-2018 11.5 (16:30) -1.7 (-00:0) 4.9 7.78 (21:20) 6.39 (21:10) 0 0 0 0 0
28-01-2018 11.1 (15:30) -2.2 (-00:0) 4.5 7.22 (16:10) 5.56 (06:40) 0 0 0 0 0
27-01-2018 6.3 (15:20) -2.8 (-00:0) 1.8 12.5 (17:00) 8.61 (15:30) 0 0 0 0 0
26-01-2018 5.7 (15:20) -2 (-00:0) 1.8 11.39 (16:10) 8.89 (16:10) 0 0 0 0 0
25-01-2018 5.5 (14:00) -0.1 (00:00) 2.7 12.5 (14:00) 7.78 (14:00) 0 0 0 0 0
24-01-2018 7.1 (16:20) 0.2 (00:00) 3.6 5.28 (13:20) 3.61 (18:50) 0 0 0 0 0
23-01-2018 5.7 (15:40) 2.9 (00:00) 4.3 2.78 (11:40) 2.22 (06:10) 0.2 0 0.2 0 0
22-01-2018 6.7 (16:50) 1.2 (00:00) 3.9 7.5 (10:10) 5.83 (10:10) 0 0 0 0 0

Gráficas

Temp. máximas Temp. mínimas Temp. medias Precipitaciones Rachas de viento máximas Velocidades máximas media en intervalos de 10 minutos

Datos horarios

Fecha y hora oficial Temperatura (ºC) Velocidad del viento (km/h) Dirección del viento Racha (km/h) Dirección de racha Precipitación (mm) Presión (hPa) Tendencia (hPa) Humedad (%)
2018-02-20 23:00:00 2.9 12 Nordeste 19 Nordeste 0 -- -- 99
2018-02-20 22:00:00 3.1 14 Este 21 Este 0 -- -- 99
2018-02-20 21:00:00 4 15 Este 36 Este 0 -- -- 99
2018-02-20 20:00:00 5 24 Nordeste 35 Nordeste 0 -- -- 91
2018-02-20 19:00:00 6.2 28 Nordeste 42 Nordeste 0 -- -- 81
2018-02-20 18:00:00 8.8 27 Nordeste 44 Nordeste 0 -- -- 70
2018-02-20 17:00:00 10.8 29 Nordeste 41 Nordeste 0 -- -- 61
2018-02-20 16:00:00 11.1 22 Nordeste 34 Nordeste 0 -- -- 61
2018-02-20 15:00:00 11.1 24 Nordeste 42 Nordeste -- -- -- 58
2018-02-20 14:00:00 10.4 20 Nordeste -- -- -- -- -- 65
2018-02-20 13:00:00 -- 15 Nordeste 23 Nordeste -- -- -- --
2018-02-20 12:00:00 -- 0 Calma 33 Nordeste -- -- -- --
2018-02-20 11:00:00 6.7 12 Nordeste 18 Nordeste -- -- -- 88
2018-02-20 10:00:00 3.1 0 Calma 12 Noroeste -- -- -- 99
2018-02-20 09:00:00 1.8 4 Noroeste 8 Noroeste -- -- -- 99
2018-02-20 08:00:00 1.9 6 Norte 9 Nordeste -- -- -- 99
2018-02-20 07:00:00 2.6 3 Oeste 6 Nordeste -- -- -- 99
2018-02-20 06:00:00 2.2 8 Sudoeste 10 Sudoeste -- -- -- 99
2018-02-20 05:00:00 2.7 5 Noroeste 6 Noroeste -- -- -- 99
2018-02-20 04:00:00 3.4 5 Oeste 6 Oeste -- -- -- 99
2018-02-20 03:00:00 4 5 Nordeste 9 Este -- -- -- 99
2018-02-20 02:00:00 4.4 8 Este 15 Nordeste -- -- -- 99
2018-02-20 01:00:00 4.4 8 Nordeste 12 Nordeste -- -- -- 98
2018-02-20 00:00:00 4.1 7 Nordeste 21 Nordeste -- -- -- 99
2018-02-19 23:00:00 3.8 9 Nordeste 14 Nordeste -- -- -- 99
2018-02-19 22:00:00 4.9 9 Norte 13 Norte -- -- -- 96
2018-02-19 21:00:00 6.2 12 Norte 14 Norte -- -- -- 91
2018-02-19 20:00:00 6.2 9 Norte 12 Norte -- -- -- 88
2018-02-19 19:00:00 7.6 10 Noroeste 19 Norte 0 -- -- 81
2018-02-19 18:00:00 9.4 10 Norte 16 Norte 0 -- -- 73
2018-02-19 17:00:00 9.6 9 Norte 16 Norte 0 -- -- 71
2018-02-19 16:00:00 9.5 10 Noroeste 17 Noroeste 0 -- -- 72
2018-02-19 15:00:00 9.5 10 Noroeste 22 Norte 0 -- -- 74
2018-02-19 14:00:00 9.3 11 Noroeste 18 Noroeste 0 -- -- 75
2018-02-19 13:00:00 8.6 12 Noroeste 19 Norte 0 -- -- 78
2018-02-19 12:00:00 7.5 10 Noroeste 15 Noroeste 0 -- -- 85
2018-02-19 11:00:00 6 10 Noroeste 17 Noroeste 0 -- -- 93
2018-02-19 10:00:00 4.6 12 Oeste 14 Oeste 0 -- -- 99
2018-02-19 09:00:00 3.1 6 Oeste 8 Sudoeste 0 -- -- 99
2018-02-19 08:00:00 2.7 8 Sudoeste 10 Sudoeste 0 -- -- 99
2018-02-19 07:00:00 3 5 Sudoeste 7 Sudoeste 0 -- -- 99
2018-02-19 06:00:00 2.7 5 Sudoeste 6 Sudoeste 0 -- -- 99
2018-02-19 05:00:00 2.8 5 Sudoeste 6 Sudoeste 0 -- -- 99
2018-02-19 04:00:00 2.7 4 Sudoeste 6 Sudoeste 0 -- -- 99
2018-02-19 03:00:00 1.8 5 Oeste 6 Sudoeste 0 -- -- 99
2018-02-19 02:00:00 2.4 4 Sur 6 Este 0 -- -- 99
2018-02-19 01:00:00 3.4 5 Nordeste 9 Este 0 -- -- 99
2018-02-19 00:00:00 4.1 6 Este 10 Este 0 -- -- 98
2018-02-18 23:00:00 4.6 9 Nordeste 17 Este 0 -- -- 94
2018-02-18 22:00:00 5.3 13 Este 20 Este 0 -- -- 89
2018-02-18 21:00:00 5.7 16 Este 24 Este 0 -- -- 86
2018-02-18 20:00:00 5.8 18 Este 27 Nordeste 0 -- -- 83
2018-02-18 19:00:00 6.7 17 Este 30 Este 0 -- -- 77
2018-02-18 18:00:00 8.4 24 Nordeste 32 Este 0 -- -- 68
2018-02-18 17:00:00 10.2 22 Nordeste 34 Nordeste 0 -- -- 64
2018-02-18 16:00:00 10.6 15 Nordeste 31 Nordeste 0 -- -- 67
2018-02-18 15:00:00 9.3 17 Nordeste 26 Nordeste 0 -- -- 71
2018-02-18 14:00:00 7.7 14 Nordeste 27 Nordeste 0 -- -- 73
2018-02-18 13:00:00 5.4 9 Norte 16 Nordeste 0 -- -- 82
2018-02-18 12:00:00 4.1 9 Nordeste 19 Nordeste 0 -- -- 91
2018-02-18 11:00:00 2.2 8 Nordeste 11 Nordeste 0 -- -- 99
2018-02-18 10:00:00 -0.4 5 Norte 11 Norte 0 -- -- 99
2018-02-18 09:00:00 -1.6 4 Noroeste 8 Noroeste 0 -- -- 99
2018-02-18 08:00:00 -3.3 7 Nordeste 9 Nordeste 0 -- -- 99
2018-02-18 07:00:00 -3 7 Norte 9 Norte 0 -- -- 99
2018-02-18 06:00:00 -2.7 6 Nordeste 10 Nordeste 0 -- -- 99
2018-02-18 05:00:00 -2.4 8 Nordeste 10 Norte 0 -- -- 99
2018-02-18 04:00:00 -2 8 Norte 12 Norte 0 -- -- 99
2018-02-18 03:00:00 -1.3 6 Nordeste 10 Nordeste 0 -- -- 99
2018-02-18 02:00:00 -1.1 10 Este 16 Este 0 -- -- 99
2018-02-18 01:00:00 0 11 Este 23 Este 0 -- -- 99
2018-02-18 00:00:00 0.8 19 Este 32 Este 0 -- -- 96
2018-02-17 23:00:00 1.3 17 Este 24 Este 0 -- -- 94
2018-02-17 22:00:00 1.8 15 Este 26 Este 0 -- -- 94
2018-02-17 21:00:00 2.6 18 Este 32 Este 0 -- -- 88
2018-02-17 20:00:00 3.7 23 Este 32 Este 0 -- -- 86
2018-02-17 19:00:00 5.3 22 Nordeste 29 Nordeste 0 -- -- 77
2018-02-17 18:00:00 6.8 19 Este 27 Nordeste 0 -- -- 71
2018-02-17 17:00:00 7.6 19 Este 28 Nordeste 0 -- -- 73
2018-02-17 16:00:00 7.8 16 Nordeste 26 Este 0 -- -- 76
2018-02-17 15:00:00 8.2 17 Nordeste 27 Nordeste 0 -- -- 77
2018-02-17 14:00:00 7.8 19 Nordeste 29 Nordeste 0 -- -- 80
2018-02-17 13:00:00 7.3 19 Este 26 Este 0 -- -- 90
2018-02-17 12:00:00 5.6 19 Este 27 Este 0 -- -- 99
2018-02-17 11:00:00 4.4 21 Este 28 Este 0 -- -- 99
2018-02-17 10:00:00 4.3 20 Este 25 Este 0 -- -- 99
2018-02-17 09:00:00 4.6 13 Este 19 Este 0 -- -- 99
2018-02-17 08:00:00 4.7 7 Noroeste 21 Oeste 0 -- -- 99
2018-02-17 07:00:00 5 12 Oeste 20 Oeste 0 -- -- 99
2018-02-17 06:00:00 5.4 17 Oeste 25 Oeste 0 -- -- 99
2018-02-17 05:00:00 6 19 Oeste 27 Oeste 0 -- -- 99
2018-02-17 04:00:00 6.2 18 Oeste 32 Oeste 0 -- -- 99
2018-02-17 03:00:00 6.1 19 Oeste 28 Oeste 0 -- -- 99
2018-02-17 02:00:00 6.1 20 Oeste 26 Oeste 0 -- -- 99
2018-02-17 01:00:00 6.3 17 Oeste 23 Oeste 0 -- -- 99
2018-02-17 00:00:00 6.7 9 Oeste 22 Oeste 0 -- -- 99
2018-02-16 23:00:00 6.8 15 Oeste 24 Oeste 0 -- -- 99
2018-02-16 22:00:00 7.8 19 Oeste 27 Oeste 0 -- -- 99
2018-02-16 21:00:00 8.2 22 Oeste 31 Oeste 0 -- -- 99
2018-02-16 20:00:00 9.7 17 Oeste 22 Oeste 0 -- -- 99
2018-02-16 19:00:00 9.9 11 Oeste 15 Oeste 0 -- -- 97
2018-02-16 18:00:00 11.5 8 Noroeste 17 Oeste 0 -- -- 92
2018-02-16 17:00:00 13 10 Oeste 20 Oeste 0 -- -- 88
2018-02-16 16:00:00 12.5 11 Oeste 22 Oeste 0 -- -- 92
2018-02-16 15:00:00 11.1 18 Oeste 23 Noroeste 0 -- -- 99
2018-02-16 14:00:00 10.5 12 Oeste 18 Noroeste 0 -- -- 99
2018-02-16 13:00:00 11.1 9 Oeste 17 Oeste 0 -- -- 99
2018-02-16 12:00:00 10.4 12 Sudoeste 16 Sudoeste 0 -- -- 99
2018-02-16 11:00:00 9 11 Sudoeste 14 Oeste 0 -- -- 99
2018-02-16 10:00:00 8 12 Sudoeste 17 Oeste 0 -- -- 99
2018-02-16 09:00:00 7.3 11 Sudoeste 14 Sudoeste 0 -- -- 99
2018-02-16 08:00:00 7.5 10 Sudoeste 16 Sudoeste 0 -- -- 99
2018-02-16 07:00:00 7.6 7 Oeste 14 Oeste 0 -- -- 99
2018-02-16 06:00:00 7.6 11 Oeste 16 Sudoeste 0 -- -- 99
2018-02-16 05:00:00 7.6 10 Sudoeste 15 Sudoeste 0 -- -- 99
2018-02-16 04:00:00 7.5 8 Sudoeste 15 Sudoeste 0 -- -- 99
2018-02-16 03:00:00 7.7 10 Sudoeste 19 Oeste 0 -- -- 99
2018-02-16 02:00:00 8.4 18 Sudoeste 31 Oeste 0 -- -- 99
2018-02-16 01:00:00 8.8 23 Oeste 30 Oeste 0 -- -- 99
2018-02-16 00:00:00 9 22 Oeste 31 Oeste 0 -- -- 99
2018-02-15 23:00:00 9 19 Oeste 26 Oeste 0 -- -- 99
2018-02-15 22:00:00 9 19 Oeste 33 Sudoeste 0 -- -- 99
2018-02-15 21:00:00 8.9 20 Sudoeste 27 Oeste 0 -- -- 99
2018-02-15 20:00:00 9.6 20 Sudoeste 30 Sudoeste 0 -- -- 99
2018-02-15 19:00:00 10 22 Sudoeste 30 Sudoeste 0 -- -- 99
2018-02-15 18:00:00 10.7 21 Sudoeste 29 Sudoeste 0 -- -- 99
2018-02-15 17:00:00 11 18 Oeste 24 Oeste 0 -- -- 99
2018-02-15 16:00:00 11.3 20 Oeste 27 Oeste 0 -- -- 99
2018-02-15 15:00:00 10.7 18 Oeste 30 Oeste 0 -- -- 99
2018-02-15 14:00:00 11 23 Oeste 33 Oeste 0 -- -- 99
2018-02-15 13:00:00 10 23 Sudoeste 33 Sudoeste 0 -- -- 99
2018-02-15 12:00:00 8.8 26 Sudoeste 35 Oeste 0 -- -- 99
2018-02-15 11:00:00 7.7 26 Sudoeste 32 Sudoeste 0 -- -- 99
2018-02-15 10:00:00 7.1 24 Sudoeste 32 Sudoeste 0 -- -- 99
2018-02-15 09:00:00 7 23 Sudoeste 30 Sudoeste 0 -- -- 99
2018-02-15 08:00:00 6.8 17 Sudoeste 25 Sudoeste 0 -- -- 99
2018-02-15 07:00:00 6.8 18 Sudoeste 27 Oeste 0 -- -- 99
2018-02-15 06:00:00 7.2 16 Sudoeste 29 Sudoeste 0 -- -- 99
2018-02-15 05:00:00 6.9 25 Sudoeste 31 Sudoeste 0 -- -- 99
2018-02-15 04:00:00 6.9 20 Sudoeste 27 Sudoeste 0 -- -- 99
2018-02-15 03:00:00 7.2 21 Sudoeste 40 Oeste 0 -- -- 99
2018-02-15 02:00:00 7.5 28 Oeste 41 Oeste 0 -- -- 99
2018-02-15 01:00:00 7.4 28 Sudoeste 43 Oeste 0 -- -- 99
2018-02-15 00:00:00 7.2 26 Sudoeste 35 Sudoeste 0 -- -- 99
2018-02-14 23:00:00 6.9 25 Sudoeste 36 Sudoeste 0 -- -- 99
2018-02-14 22:00:00 7.1 30 Sudoeste 39 Sudoeste 0 -- -- 99
2018-02-14 21:00:00 7.1 26 Sudoeste 43 Oeste 0 -- -- 99
2018-02-14 20:00:00 7.4 32 Oeste 44 Oeste 0 -- -- 99
2018-02-14 19:00:00 7.6 32 Oeste 48 Oeste 0 -- -- 99
2018-02-14 18:00:00 7.5 34 Oeste 49 Oeste 0 -- -- 99
2018-02-14 17:00:00 7.3 33 Oeste 46 Oeste 0 -- -- 99
2018-02-14 16:00:00 7.1 35 Oeste 57 Oeste 0 -- -- 99
2018-02-14 15:00:00 7.2 40 Oeste 57 Oeste 0 -- -- 99
2018-02-14 14:00:00 6.8 42 Oeste 57 Sudoeste 0 -- -- 99
2018-02-14 13:00:00 6.3 40 Oeste 54 Oeste 0 -- -- 99
2018-02-14 12:00:00 6.3 41 Oeste 56 Oeste 0 -- -- 99
2018-02-14 11:00:00 5.9 37 Oeste 50 Sudoeste 0 -- -- 99
2018-02-14 10:00:00 5.8 37 Oeste 49 Oeste 0 -- -- 99
2018-02-14 09:00:00 5.3 36 Oeste 50 Oeste 0 -- -- 99
2018-02-14 08:00:00 4.8 31 Oeste 42 Oeste 0 -- -- 99
2018-02-14 07:00:00 4.7 31 Oeste 42 Oeste 0 -- -- 99
2018-02-14 06:00:00 4.6 30 Oeste 44 Oeste 0 -- -- 99
2018-02-14 05:00:00 4.5 35 Oeste 47 Oeste 0 -- -- 99
2018-02-14 04:00:00 4.5 36 Oeste 49 Oeste 0 -- -- 99
2018-02-14 03:00:00 4.5 37 Oeste 50 Oeste 0 -- -- 99
2018-02-14 02:00:00 4.9 36 Oeste 105 Oeste 0 -- -- 99
2018-02-14 01:00:00 4.8 37 Oeste 53 Oeste 0 -- -- 99
2018-02-14 00:00:00 5 38 Oeste 53 Oeste 0 -- -- 99
2018-02-13 23:00:00 4.9 37 Oeste 54 Oeste 0 -- -- 99
2018-02-13 22:00:00 4.7 34 Oeste 48 Oeste 0 -- -- 99
2018-02-13 21:00:00 4.4 22 Oeste 36 Oeste 0 -- -- 99
2018-02-13 20:00:00 4.1 23 Oeste 37 Oeste 0 -- -- 99
2018-02-13 19:00:00 3.9 25 Oeste 33 Oeste 0 -- -- 99
2018-02-13 18:00:00 3.7 27 Oeste 42 Oeste 0 -- -- 99
2018-02-13 17:00:00 3.7 34 Oeste 50 Oeste 0 -- -- 99
2018-02-13 16:00:00 3.6 37 Oeste 53 Oeste 0 -- -- 99
2018-02-13 15:00:00 3.2 36 Oeste 53 Oeste 0 -- -- 99
2018-02-13 14:00:00 2.7 39 Oeste 51 Sudoeste 0 -- -- 99
2018-02-13 13:00:00 2.2 37 Oeste 52 Oeste 0 -- -- 99
2018-02-13 12:00:00 1.4 33 Sudoeste 44 Sudoeste 0 -- -- 99
2018-02-13 11:00:00 0 31 Sudoeste 40 Sudoeste 0 -- -- 99
2018-02-13 10:00:00 -1.4 30 Sudoeste 40 Sudoeste 0 -- -- 99
2018-02-13 09:00:00 -1.8 31 Sudoeste 39 Sudoeste 0 -- -- 99
2018-02-13 08:00:00 -1.7 26 Sudoeste 38 Sudoeste 0 -- -- 99
2018-02-13 07:00:00 -1.8 25 Oeste 34 Oeste 0 -- -- 99
2018-02-13 06:00:00 -5 15 Sudoeste 21 Sudoeste 0 -- -- 98
2018-02-13 05:00:00 -5.1 16 Sudoeste 22 Sudoeste 0 -- -- 99
2018-02-13 04:00:00 -4.8 16 Sudoeste 20 Sudoeste 0 -- -- 99
2018-02-13 03:00:00 -6.1 12 Oeste 15 Sudoeste 0 -- -- 98
2018-02-13 02:00:00 -5.8 14 Sudoeste 15 Sudoeste 0 -- -- 99
2018-02-13 01:00:00 -4.5 10 Sudoeste 11 Sudoeste 0 -- -- 93
2018-02-13 00:00:00 -2 3 Sur 5 Sudoeste 0 -- -- 87
2018-02-12 23:00:00 -2.5 6 Oeste 14 Oeste 0 -- -- 91
2018-02-12 22:00:00 -1.7 2 Sudeste 13 Sudeste 0 -- -- 86
2018-02-12 21:00:00 -0.2 4 Sudeste 12 Sudeste 0 -- -- 83
2018-02-12 20:00:00 -0.9 9 Este 14 Norte 0 -- -- 79
2018-02-12 19:00:00 0.9 6 Norte 14 Norte 0 -- -- 66
2018-02-12 18:00:00 2 5 Noroeste 18 Noroeste 0 -- -- 65
2018-02-12 17:00:00 2.9 13 Noroeste 43 Noroeste 0 -- -- 63
2018-02-12 16:00:00 3.6 29 Noroeste 44 Noroeste 0 -- -- 55
2018-02-12 15:00:00 5.3 23 Noroeste 33 Noroeste 0 -- -- 54
2018-02-12 14:00:00 4 15 Oeste 27 Oeste 0 -- -- 62
2018-02-12 13:00:00 3.6 14 Oeste 23 Oeste 0 -- -- 78
2018-02-12 12:00:00 2.3 4 Nordeste 14 Nordeste 0 -- -- 84
2018-02-12 11:00:00 1.8 5 Este 11 Sudeste 0 -- -- 94
2018-02-12 10:00:00 -0.9 4 Nordeste 11 Nordeste 0 -- -- 99
2018-02-12 09:00:00 -2.8 5 Noroeste 9 Noroeste 0 -- -- 99
2018-02-12 08:00:00 -2.1 3 Norte 13 Noroeste 0 -- -- 99
2018-02-12 07:00:00 -2.5 12 Noroeste 18 Noroeste 0 -- -- 99
2018-02-12 06:00:00 -1.4 15 Noroeste 17 Noroeste 0 -- -- 99
2018-02-12 05:00:00 -0.6 13 Noroeste 17 Noroeste 0 -- -- 99
2018-02-12 04:00:00 0.7 13 Noroeste 16 Noroeste 0 -- -- 99
2018-02-12 03:00:00 1 10 Noroeste 40 Noroeste 0 -- -- 99
2018-02-12 02:00:00 2 12 Noroeste 15 Noroeste 0 -- -- 99
2018-02-12 01:00:00 2.6 9 Noroeste 10 Noroeste 0 -- -- 99
2018-02-12 00:00:00 3.3 8 Norte 12 Nordeste 0 -- -- 99
2018-02-11 23:00:00 3.4 7 Nordeste 17 Norte 0 -- -- 99
2018-02-11 22:00:00 4.6 8 Noroeste 22 Norte 0 -- -- 98
2018-02-11 21:00:00 5.9 16 Noroeste 32 Oeste 0 -- -- 99
2018-02-11 20:00:00 6.8 27 Oeste 37 Oeste 0 -- -- 99
2018-02-11 19:00:00 7.7 29 Oeste 41 Oeste 0 -- -- 99
2018-02-11 18:00:00 8.2 22 Oeste 30 Oeste 0 -- -- 99
2018-02-11 17:00:00 8 28 Oeste 50 Oeste 0 -- -- 99
2018-02-11 16:00:00 9.6 31 Oeste 45 Oeste 0 -- -- 92
2018-02-11 15:00:00 9 29 Oeste 40 Oeste 0 -- -- 98
2018-02-11 14:00:00 10.8 29 Oeste 39 Noroeste 0 -- -- 78
2018-02-11 13:00:00 10.6 26 Oeste 38 Oeste 0 -- -- 88
2018-02-11 12:00:00 8.7 22 Oeste 31 Oeste 0 -- -- 95
2018-02-11 11:00:00 7.5 22 Oeste 29 Oeste 0 -- -- 99
2018-02-11 10:00:00 3 12 Sudoeste 16 Sudoeste 0 -- -- 99
2018-02-11 09:00:00 0.8 12 Sudoeste 21 Oeste 0 -- -- 99
2018-02-11 08:00:00 1.9 15 Oeste 28 Oeste 0 -- -- 99
2018-02-11 07:00:00 3 20 Oeste 31 Oeste 0 -- -- 99
2018-02-11 06:00:00 0.9 21 Oeste 24 Oeste 0 -- -- 99
2018-02-11 05:00:00 2.7 20 Oeste 23 Oeste 0 -- -- 99
2018-02-11 04:00:00 2.1 20 Oeste 23 Oeste 0 -- -- 99
2018-02-11 03:00:00 1.6 15 Oeste 27 Oeste 0 -- -- 99
2018-02-11 02:00:00 3.4 13 Oeste 23 Oeste 0 -- -- 98
2018-02-11 01:00:00 3.3 17 Oeste 21 Oeste 0 -- -- 97
2018-02-11 00:00:00 3.5 10 Oeste 16 Oeste 0 -- -- 95
2018-02-10 23:00:00 3.5 11 Noroeste 14 Noroeste 0 -- -- 87
2018-02-10 22:00:00 3.4 6 Oeste 9 Oeste 0 -- -- 80
2018-02-10 21:00:00 4.1 5 Este 10 Nordeste 0 -- -- 75
2018-02-10 20:00:00 3.7 11 Norte 15 Noroeste 0 -- -- 71
2018-02-10 19:00:00 5.4 9 Noroeste 21 Noroeste 0 -- -- 65
2018-02-10 18:00:00 6.6 15 Noroeste 25 Noroeste 0 -- -- 59
2018-02-10 17:00:00 6.8 14 Noroeste 25 Noroeste 0 -- -- 58
2018-02-10 16:00:00 7.8 15 Noroeste 31 Noroeste 0 -- -- 57
2018-02-10 15:00:00 7.5 17 Noroeste 31 Norte 0 -- -- 60
2018-02-10 14:00:00 6.5 12 Norte 27 Noroeste 0 -- -- 64
2018-02-10 13:00:00 5.1 20 Noroeste 28 Noroeste 0 -- -- 72
2018-02-10 12:00:00 2.7 14 Noroeste 19 Noroeste 0 -- -- 84
2018-02-10 11:00:00 0.4 7 Oeste 13 Noroeste 0 -- -- 98
2018-02-10 10:00:00 -1.2 10 Oeste 15 Noroeste 0 -- -- 99
2018-02-10 09:00:00 -4.6 8 Oeste 11 Oeste 0 -- -- 99
2018-02-10 08:00:00 -4.4 3 Oeste 9 Oeste 0 -- -- 99
2018-02-10 07:00:00 -4.4 6 Oeste 10 Oeste 0 -- -- 98
2018-02-10 06:00:00 -3.9 8 Oeste 10 Oeste 0 -- -- 99
2018-02-10 05:00:00 -4.3 8 Oeste 10 Noroeste 0 -- -- 99
2018-02-10 04:00:00 -3 7 Oeste 9 Noroeste 0 -- -- 99
2018-02-10 03:00:00 -3.4 6 Oeste 9 Oeste 0 -- -- 99
2018-02-10 02:00:00 -1.7 6 Este 13 Este 0 -- -- 99
2018-02-10 01:00:00 -2.3 13 Este 15 Nordeste 0 -- -- 99
2018-02-10 00:00:00 -1.5 14 Nordeste 17 Nordeste 0 -- -- 99
2018-02-09 23:00:00 -1.5 11 Este 15 Nordeste 0 -- -- 99
2018-02-09 22:00:00 0 11 Nordeste 15 Este 0 -- -- 99
2018-02-09 21:00:00 1.4 14 Este 19 Nordeste 0 -- -- 99
2018-02-09 20:00:00 2.9 12 Nordeste 18 Este 0 -- -- 95
2018-02-09 19:00:00 3.3 14 Este 27 Este 0 -- -- 90
2018-02-09 18:00:00 5.8 23 Nordeste 38 Nordeste 0 -- -- 75
2018-02-09 17:00:00 7.7 19 Norte 33 Noroeste 0 -- -- 68
2018-02-09 16:00:00 8.5 13 Noroeste 25 Oeste 0 -- -- 71
2018-02-09 15:00:00 6.8 12 Oeste 22 Oeste 0 -- -- 76
2018-02-09 14:00:00 5.3 13 Oeste 20 Oeste 0 -- -- 81
2018-02-09 13:00:00 4.4 10 Sudoeste 22 Sudoeste 0 -- -- 83
2018-02-09 12:00:00 2.4 9 Sudoeste 14 Oeste 0 -- -- 89
2018-02-09 11:00:00 1 9 Oeste 14 Oeste 0 -- -- 96
2018-02-09 10:00:00 -0.6 9 Sudoeste 19 Oeste 0 -- -- 99
2018-02-09 09:00:00 -2.3 14 Oeste 19 Oeste 0 -- -- 99
2018-02-09 08:00:00 -3.7 11 Oeste 18 Sudoeste 0 -- -- 99
2018-02-09 07:00:00 -3.5 10 Sudoeste 17 Sudoeste 0 -- -- 99
2018-02-09 06:00:00 -4.6 12 Sudoeste 14 Sudoeste 0 -- -- 99
2018-02-09 05:00:00 -5 9 Sudoeste 14 Sudoeste 0 -- -- 98
2018-02-09 04:00:00 -5.5 8 Sudoeste 14 Sudoeste 0 -- -- 99
2018-02-09 03:00:00 -4.8 11 Sudoeste 13 Sudoeste 0 -- -- 97
2018-02-09 02:00:00 -4.5 9 Sudoeste 12 Sudoeste 0 -- -- 93
2018-02-09 01:00:00 -3.8 9 Sudoeste 13 Sudoeste 0 -- -- 92
2018-02-09 00:00:00 -2.5 10 Sudoeste 11 Sur 0 -- -- 87
2018-02-08 23:00:00 -1.9 9 Sur 13 Sur 0 -- -- 84
2018-02-08 22:00:00 -1.7 6 Sudeste 15 Sudeste 0 -- -- 81
2018-02-08 21:00:00 -2.7 12 Sudoeste 14 Sudoeste 0 -- -- 80
2018-02-08 20:00:00 -1.3 10 Sudoeste 11 Sudoeste 0 -- -- 70
2018-02-08 19:00:00 0.7 5 Sudoeste 7 Sudoeste 0 -- -- 64
2018-02-08 18:00:00 3 2 Sur 12 Oeste 0 -- -- 59
2018-02-08 17:00:00 3.2 2 Oeste 12 Norte 0 -- -- 61
2018-02-08 16:00:00 2.8 7 Norte 17 Noroeste 0 -- -- 60
2018-02-08 15:00:00 2.6 6 Norte 17 Noroeste 0 -- -- 62
2018-02-08 14:00:00 2.4 6 Noroeste 19 Norte 0 -- -- 63
2018-02-08 13:00:00 1.8 6 Noroeste 18 Noroeste 0 -- -- 66
2018-02-08 12:00:00 -0.1 9 Noroeste 17 Noroeste 0 -- -- 78
2018-02-08 11:00:00 -1.7 12 Noroeste 15 Noroeste 0 -- -- 92
2018-02-08 10:00:00 -3.9 6 Noroeste 15 Noroeste 0 -- -- 99
2018-02-08 09:00:00 -5.4 8 Oeste 13 Noroeste 0 -- -- 98
2018-02-08 08:00:00 -6.7 8 Noroeste 13 Noroeste 0 -- -- 98
2018-02-08 07:00:00 -6.8 9 Noroeste 12 Noroeste 0 -- -- 98
2018-02-08 06:00:00 -5.4 3 Oeste 5 Oeste 0 -- -- 99
2018-02-08 05:00:00 -5.9 2 Oeste 5 Noroeste 0 -- -- 98
2018-02-08 04:00:00 -5.3 4 Noroeste 15 Noroeste 0 -- -- 99
2018-02-08 03:00:00 -3.9 10 Noroeste 14 Noroeste 0 -- -- 99
2018-02-08 02:00:00 -4.8 8 Norte 9 Norte 0 -- -- 99
2018-02-08 01:00:00 -3.7 5 Norte 11 Nordeste 0 -- -- 99
2018-02-08 00:00:00 -2.5 12 Nordeste 19 Este 0 -- -- 99
2018-02-07 23:00:00 -3.3 14 Este 18 Este 0 -- -- 99
2018-02-07 22:00:00 -3 15 Nordeste 21 Nordeste 0 -- -- 97
2018-02-07 21:00:00 -3.1 15 Nordeste 28 Nordeste 0 -- -- 93
2018-02-07 20:00:00 -2.3 18 Este 27 Nordeste 0 -- -- 87
2018-02-07 19:00:00 0 13 Nordeste 22 Nordeste 0 -- -- 67
2018-02-07 18:00:00 1.2 15 Nordeste 23 Nordeste 0 -- -- 63
2018-02-07 17:00:00 1.7 18 Nordeste 28 Nordeste 0 -- -- 67
2018-02-07 16:00:00 1.8 19 Nordeste 31 Este 0 -- -- 69
2018-02-07 15:00:00 2.3 22 Nordeste 35 Nordeste 0 -- -- 67
2018-02-07 14:00:00 2.3 24 Nordeste 45 Nordeste 0 -- -- 64
2018-02-07 13:00:00 2.7 23 Nordeste 45 Nordeste 0 -- -- 64
2018-02-07 12:00:00 1.6 27 Nordeste 43 Nordeste 0 -- -- 73
2018-02-07 11:00:00 -0.1 15 Norte 22 Norte 0 -- -- 97
2018-02-07 10:00:00 -1.7 7 Norte 12 Norte 0 -- -- 99
2018-02-07 09:00:00 -5 9 Nordeste 10 Nordeste 0 -- -- 99
2018-02-07 08:00:00 -5.4 6 Noroeste 12 Noroeste 0 -- -- 99
2018-02-07 07:00:00 -5.2 6 Noroeste 13 Noroeste 0 -- -- 98
2018-02-07 06:00:00 -4.7 11 Noroeste 14 Noroeste 0 -- -- 99
2018-02-07 05:00:00 -3.3 10 Noroeste 13 Noroeste 0 -- -- 99
2018-02-07 04:00:00 -3.2 8 Noroeste 11 Noroeste 0 -- -- 99
2018-02-07 03:00:00 -2.9 6 Oeste 10 Noroeste 0 -- -- 99
2018-02-07 02:00:00 -2.4 3 Nordeste 6 Este 0 -- -- 99
2018-02-07 01:00:00 -2.9 6 Este 7 Este 0 -- -- 99
2018-02-07 00:00:00 -3.3 4 Nordeste 9 Este 0 -- -- 99
2018-02-06 23:00:00 -2.6 7 Este 15 Este 0 -- -- 97
2018-02-06 22:00:00 -2.1 10 Nordeste 15 Este 0 -- -- 96
2018-02-06 21:00:00 -1.6 9 Este 22 Este 0 -- -- 91
2018-02-06 20:00:00 -1.4 12 Este 16 Nordeste 0 -- -- 86
2018-02-06 19:00:00 -1.1 8 Nordeste 24 Nordeste 0 -- -- 77
2018-02-06 18:00:00 1.2 22 Nordeste 30 Nordeste 0 -- -- 68
2018-02-06 17:00:00 2.8 14 Norte 27 Nordeste 0 -- -- 65
2018-02-06 16:00:00 3 17 Nordeste 33 Norte 0 -- -- 65
2018-02-06 15:00:00 2.2 22 Nordeste 33 Nordeste 0 -- -- 71
2018-02-06 14:00:00 2.4 21 Nordeste 37 Nordeste 0 -- -- 74
2018-02-06 13:00:00 2 23 Nordeste 37 Nordeste 0 -- -- 75
2018-02-06 12:00:00 -0.3 18 Nordeste 28 Nordeste 0 -- -- 91
2018-02-06 11:00:00 -0.5 16 Nordeste 23 Nordeste 0 -- -- 95
2018-02-06 10:00:00 -2.7 9 Norte 20 Nordeste 0 -- -- 99
2018-02-06 09:00:00 -2.5 16 Nordeste 27 Nordeste 0 -- -- 99
2018-02-06 08:00:00 -3 16 Nordeste 27 Nordeste 0 -- -- 99
2018-02-06 07:00:00 -3.6 21 Nordeste 34 Nordeste 0 -- -- 97
2018-02-06 06:00:00 -3.2 23 Nordeste 34 Nordeste 0 -- -- 96
2018-02-06 05:00:00 -3.3 19 Nordeste 31 Nordeste 0 -- -- 96
2018-02-06 04:00:00 -2.8 24 Nordeste 40 Nordeste 0 -- -- 96
2018-02-06 03:00:00 -2.4 24 Nordeste 33 Nordeste 0 -- -- 97
2018-02-06 02:00:00 -2.5 19 Nordeste 34 Nordeste 0 -- -- 99
2018-02-06 01:00:00 -1.9 27 Nordeste 38 Nordeste 0 -- -- 97
2018-02-06 00:00:00 -1.5 17 Nordeste 33 Nordeste 0 -- -- 97
2018-02-05 23:00:00 -1.6 15 Nordeste 32 Nordeste 0 -- -- 98
2018-02-05 22:00:00 -1.1 19 Nordeste 36 Nordeste 0 -- -- 98
2018-02-05 21:00:00 -0.8 27 Nordeste 42 Nordeste 0 -- -- 95
2018-02-05 20:00:00 -0.5 25 Nordeste 41 Nordeste 0 -- -- 93
2018-02-05 19:00:00 -0.2 26 Nordeste 42 Nordeste 0 -- -- 89
2018-02-05 18:00:00 0.4 32 Nordeste 53 Nordeste 0 -- -- 81
2018-02-05 17:00:00 1.1 33 Nordeste 50 Nordeste 0 -- -- 82
2018-02-05 16:00:00 1.3 36 Nordeste 52 Nordeste 0 -- -- 81
2018-02-05 15:00:00 2 32 Nordeste 50 Nordeste 0 -- -- 82
2018-02-05 14:00:00 2.4 34 Nordeste 48 Nordeste 0 -- -- 81
2018-02-05 13:00:00 2.4 31 Nordeste 53 Nordeste 0 -- -- 87
2018-02-05 12:00:00 1.7 36 Nordeste 57 Nordeste 0 -- -- 91
2018-02-05 11:00:00 0.7 28 Nordeste 45 Nordeste 0 -- -- 99
2018-02-05 10:00:00 -0.9 15 Nordeste 31 Nordeste 0 -- -- 99
2018-02-05 09:00:00 -1.8 15 Nordeste 27 Nordeste 0 -- -- 99
2018-02-05 08:00:00 -1.4 18 Nordeste 27 Nordeste 0 -- -- 99
2018-02-05 07:00:00 -2 10 Nordeste 21 Nordeste 0 -- -- 99
2018-02-05 06:00:00 -3.1 15 Norte 26 Nordeste 0 -- -- 99
2018-02-05 05:00:00 -2.5 18 Nordeste 22 Nordeste 0 -- -- 99
2018-02-05 04:00:00 -3.1 17 Nordeste 25 Nordeste 0 -- -- 99
2018-02-05 03:00:00 -2.5 16 Nordeste 25 Nordeste 0 -- -- 99
2018-02-05 02:00:00 -2.2 14 Nordeste 24 Nordeste 0 -- -- 99
2018-02-05 01:00:00 -1.7 17 Nordeste 23 Nordeste 0 -- -- 99
2018-02-05 00:00:00 -0.8 9 Nordeste 23 Nordeste 0 -- -- 99
2018-02-04 23:00:00 -0.9 14 Nordeste 24 Este 0 -- -- 99
2018-02-04 22:00:00 -1 16 Este 23 Este 0 -- -- 99
2018-02-04 21:00:00 -1 15 Este 22 Este 0 -- -- 99
2018-02-04 20:00:00 -1 13 Nordeste 21 Este 0 -- -- 99
2018-02-04 19:00:00 0.2 15 Nordeste 31 Este 0 -- -- 91
2018-02-04 18:00:00 2 21 Nordeste 37 Este 0 -- -- 81
2018-02-04 17:00:00 3.4 26 Nordeste 39 Nordeste 0 -- -- 76
2018-02-04 16:00:00 3.9 27 Nordeste 39 Nordeste 0 -- -- 75
2018-02-04 15:00:00 4.7 25 Nordeste 40 Nordeste 0 -- -- 75
2018-02-04 14:00:00 3.3 24 Nordeste 31 Nordeste 0 -- -- 80
2018-02-04 13:00:00 2.8 22 Nordeste 32 Nordeste 0 -- -- 84
2018-02-04 12:00:00 2.1 17 Nordeste 25 Nordeste 0 -- -- 96
2018-02-04 11:00:00 0.8 7 Norte 12 Norte 0 -- -- 99
2018-02-04 10:00:00 -0.4 8 Norte 10 Nordeste 0 -- -- 99
2018-02-04 09:00:00 -1.3 6 Norte 12 Norte 0 -- -- 99
2018-02-04 08:00:00 -1.2 11 Norte 12 Noroeste 0 -- -- 99
2018-02-04 07:00:00 -0.9 10 Noroeste 16 Norte 0 -- -- 99
2018-02-04 06:00:00 -1 12 Noroeste 26 Norte 0 -- -- 99
2018-02-04 05:00:00 -0.2 14 Noroeste 21 Noroeste 0 -- -- 99
2018-02-04 04:00:00 -0.1 17 Noroeste 26 Noroeste 0 -- -- 99
2018-02-04 03:00:00 0.4 17 Noroeste 24 Noroeste 0 -- -- 99
2018-02-04 02:00:00 1 16 Noroeste 31 Noroeste 0 -- -- 99
2018-02-04 01:00:00 1.7 20 Noroeste 27 Noroeste 0 -- -- 99
2018-02-04 00:00:00 1.9 18 Oeste 27 Oeste 0 -- -- 99
2018-02-03 23:00:00 2.3 19 Oeste 28 Oeste 0 -- -- 99
2018-02-03 22:00:00 2.7 22 Oeste 31 Oeste 0 -- -- 99
2018-02-03 21:00:00 3.2 23 Oeste 39 Oeste 0 -- -- 99
2018-02-03 20:00:00 3.8 26 Oeste 37 Oeste 0 -- -- 99
2018-02-03 19:00:00 3.9 28 Oeste 41 Oeste 0 -- -- 99
2018-02-03 18:00:00 5 31 Oeste 45 Oeste 0 -- -- 91
2018-02-03 17:00:00 5.5 29 Oeste 39 Oeste 0 -- -- 88
2018-02-03 16:00:00 5.6 26 Oeste 42 Oeste 0 -- -- 89
2018-02-03 15:00:00 5 30 Oeste 40 Oeste 0 -- -- 84
2018-02-03 14:00:00 4.4 30 Oeste 40 Oeste 0 -- -- 81
2018-02-03 13:00:00 5 24 Oeste 39 Oeste 0 -- -- 79
2018-02-03 12:00:00 3.2 24 Oeste 32 Oeste 0 -- -- 78
2018-02-03 11:00:00 2.3 24 Oeste 33 Oeste 0 -- -- 83
2018-02-03 10:00:00 -0.5 18 Oeste 23 Oeste 0 -- -- 99
2018-02-03 09:00:00 -2.1 17 Oeste 26 Oeste 0 -- -- 99
2018-02-03 08:00:00 -1.6 22 Oeste 27 Oeste 0 -- -- 99
2018-02-03 07:00:00 -2.2 20 Oeste 27 Oeste 0 -- -- 99
2018-02-03 06:00:00 -2 18 Oeste 25 Oeste 0 -- -- 99
2018-02-03 05:00:00 -2 20 Oeste 26 Oeste 0 -- -- 99
2018-02-03 04:00:00 -3.3 15 Oeste 19 Oeste 0 -- -- 99
2018-02-03 03:00:00 -3.2 13 Oeste 22 Oeste 0 -- -- 99
2018-02-03 02:00:00 -4.2 16 Noroeste 21 Oeste 0 -- -- 99
2018-02-03 01:00:00 -4 15 Noroeste 22 Oeste 0 -- -- 99
2018-02-03 00:00:00 -3.4 17 Oeste 20 Noroeste 0 -- -- 99
2018-02-02 23:00:00 -3.3 15 Oeste 22 Oeste 0 -- -- 97
2018-02-02 22:00:00 -2.2 6 Noroeste 9 Oeste 0 -- -- 91
2018-02-02 21:00:00 -2.1 6 Norte 11 Nordeste 0 -- -- 89
2018-02-02 20:00:00 -0.8 7 Nordeste 18 Nordeste 0 -- -- 83
2018-02-02 19:00:00 0.4 13 Nordeste 19 Nordeste 0 -- -- 79
2018-02-02 18:00:00 2.8 4 Este 17 Nordeste 0 -- -- 74
2018-02-02 17:00:00 3.3 8 Nordeste 16 Nordeste 0 -- -- 71
2018-02-02 16:00:00 2.9 12 Nordeste 23 Nordeste 0 -- -- 71
2018-02-02 15:00:00 3.9 10 Norte 24 Norte 0 -- -- 68
2018-02-02 14:00:00 2.4 16 Norte 29 Nordeste 0 -- -- 76
2018-02-02 13:00:00 1.7 13 Norte 24 Norte 0 -- -- 91
2018-02-02 12:00:00 1.2 8 Norte 14 Norte 0 -- -- 97
2018-02-02 11:00:00 -1.1 10 Noroeste 13 Noroeste 0 -- -- 99
2018-02-02 10:00:00 -1.5 8 Noroeste 18 Norte 0 -- -- 99
2018-02-02 09:00:00 -2.6 13 Nordeste 15 Nordeste 0 -- -- 99
2018-02-02 08:00:00 -4.1 9 Norte 18 Norte 0 -- -- 99
2018-02-02 07:00:00 -3.8 9 Noroeste 22 Norte 0 -- -- 99
2018-02-02 06:00:00 -4.5 10 Noroeste 17 Norte 0 -- -- 98
2018-02-02 05:00:00 -4.3 10 Noroeste 16 Norte 0 -- -- 99
2018-02-02 04:00:00 -3.8 14 Noroeste 20 Noroeste 0 -- -- 98
2018-02-02 03:00:00 -3.5 15 Noroeste 26 Noroeste 0 -- -- 99
2018-02-02 02:00:00 -3.7 17 Noroeste 23 Noroeste 0 -- -- 99
2018-02-02 01:00:00 -3.2 14 Noroeste 17 Noroeste 0 -- -- 99
2018-02-02 00:00:00 -3.1 13 Noroeste 17 Noroeste 0 -- -- 99
2018-02-01 23:00:00 -2.8 14 Noroeste 20 Noroeste 0 -- -- 99
2018-02-01 22:00:00 -2.1 17 Noroeste 24 Noroeste 0 -- -- 99
2018-02-01 21:00:00 -1.4 17 Noroeste 32 Norte 0 -- -- 98
2018-02-01 20:00:00 0.1 19 Norte 28 Norte 0 -- -- 93
2018-02-01 19:00:00 0.7 17 Norte 28 Norte 0 -- -- 91
2018-02-01 18:00:00 2 9 Nordeste 24 Nordeste 0 -- -- 97
2018-02-01 17:00:00 2.4 21 Nordeste 69 Noroeste 0 -- -- 94
2018-02-01 16:00:00 5.9 29 Noroeste 46 Noroeste 0 -- -- 82
2018-02-01 15:00:00 6 35 Noroeste 47 Noroeste 0 -- -- 74
2018-02-01 14:00:00 6.1 37 Noroeste 48 Noroeste 0 -- -- 74
2018-02-01 13:00:00 5.4 17 Oeste 31 Oeste 0 -- -- 88
2018-02-01 12:00:00 5 23 Noroeste 31 Noroeste 0 -- -- 97
2018-02-01 11:00:00 3.2 17 Oeste 22 Oeste 0 -- -- 99
2018-02-01 10:00:00 1.9 14 Noroeste 18 Noroeste 0 -- -- 99
2018-02-01 09:00:00 0.6 14 Noroeste 16 Noroeste 0 -- -- 99
2018-02-01 08:00:00 0.6 14 Noroeste 18 Noroeste 0 -- -- 99
2018-02-01 07:00:00 0.8 17 Noroeste 23 Noroeste 0 -- -- 99
2018-02-01 06:00:00 1.5 18 Oeste 24 Noroeste 0 -- -- 99
2018-02-01 05:00:00 1.4 17 Noroeste 21 Noroeste 0 -- -- 99
2018-02-01 04:00:00 0.2 14 Noroeste 15 Noroeste 0 -- -- 99
2018-02-01 03:00:00 -0.7 11 Oeste 13 Oeste 0 -- -- 99
2018-02-01 02:00:00 0.4 10 Sudoeste 17 Noroeste 0 -- -- 99
2018-02-01 01:00:00 2.9 14 Oeste 17 Oeste 0 -- -- 97
2018-02-01 00:00:00 0.4 11 Sudoeste 17 Sudoeste 0 -- -- 99
2018-01-31 23:00:00 1.1 12 Sudoeste 16 Oeste 0 -- -- 92
2018-01-31 22:00:00 3.5 15 Oeste 17 Oeste 0 -- -- 85
2018-01-31 21:00:00 1.6 9 Oeste 12 Oeste 0 -- -- 84
2018-01-31 20:00:00 3.4 10 Oeste 12 Oeste 0 -- -- 81
2018-01-31 19:00:00 4.9 12 Oeste 17 Oeste 0 -- -- 75
2018-01-31 18:00:00 9 12 Oeste 19 Oeste 0 -- -- 66
2018-01-31 17:00:00 11.4 14 Oeste 21 Oeste 0 -- -- 58
2018-01-31 16:00:00 11.7 12 Oeste 21 Oeste 0 -- -- 59
2018-01-31 15:00:00 11.2 15 Oeste 23 Oeste 0 -- -- 63
2018-01-31 14:00:00 9.6 14 Oeste 19 Oeste 0 -- -- 71
2018-01-31 13:00:00 9.2 10 Sudoeste 15 Sudoeste 0 -- -- 76
2018-01-31 12:00:00 7.2 7 Sudoeste 12 Sudoeste 0 -- -- 86
2018-01-31 11:00:00 4.2 7 Sudoeste 14 Sur 0 -- -- 95
2018-01-31 10:00:00 2 12 Sur 15 Sur 0 -- -- 99
2018-01-31 09:00:00 0.1 7 Sudoeste 9 Sur 0 -- -- 99
2018-01-31 08:00:00 1.1 4 Sudoeste 7 Sur 0 -- -- 99
2018-01-31 07:00:00 0.1 0 Calma 7 Este 0 -- -- 99
2018-01-31 06:00:00 -1.3 3 Norte 9 Noroeste 0 -- -- 99
2018-01-31 05:00:00 1.6 7 Sudeste 10 Sudeste 0 -- -- 93
2018-01-31 04:00:00 3.5 5 Sudeste 10 Sudeste 0 -- -- 89
2018-01-31 03:00:00 2.2 4 Sudeste 9 Sudeste 0 -- -- 91
2018-01-31 02:00:00 2.5 9 Este 10 Sudeste 0 -- -- 90
2018-01-31 01:00:00 2.6 8 Este 10 Nordeste 0 -- -- 86
2018-01-31 00:00:00 3.6 6 Nordeste 8 Nordeste 0 -- -- 85
2018-01-30 23:00:00 5.8 4 Nordeste 5 Este 0 -- -- 78
2018-01-30 22:00:00 5.8 3 Este 8 Nordeste 0 -- -- 73
2018-01-30 21:00:00 6.1 0 Calma 3 Noroeste 0 -- -- 72
2018-01-30 20:00:00 6.5 2 Noroeste 4 Norte 0 -- -- 71
2018-01-30 19:00:00 7.1 3 Noroeste 5 Norte 0 -- -- 70
2018-01-30 18:00:00 10.3 4 Norte 8 Norte 0 -- -- 65
2018-01-30 17:00:00 11.2 4 Norte 11 Norte 0 -- -- 54
2018-01-30 16:00:00 11.5 5 Noroeste 13 Noroeste 0 -- -- 57
2018-01-30 15:00:00 11.8 3 Este 12 Este 0 -- -- 58
2018-01-30 14:00:00 11.1 4 Sudeste 10 Sudeste 0 -- -- 64
2018-01-30 13:00:00 8.7 5 Sudeste 15 Este 0 -- -- 72
2018-01-30 12:00:00 7.2 13 Este 20 Este 0 -- -- 79
2018-01-30 11:00:00 5.5 13 Este 16 Sudeste 0 -- -- 88
2018-01-30 10:00:00 3.1 8 Este 11 Este 0 -- -- 99
2018-01-30 09:00:00 0.4 5 Este 13 Sudeste 0 -- -- 99
2018-01-30 08:00:00 0 6 Sudeste 17 Este 0 -- -- 99
2018-01-30 07:00:00 0.6 12 Este 18 Este 0 -- -- 99
2018-01-30 06:00:00 1 16 Este 19 Este 0 -- -- 99
2018-01-30 05:00:00 1.2 13 Este 17 Este 0 -- -- 99
2018-01-30 04:00:00 2.2 14 Este 20 Este 0 -- -- 98
2018-01-30 03:00:00 2.6 15 Este 22 Este 0 -- -- 95
2018-01-30 02:00:00 2 18 Este 22 Este 0 -- -- 97
2018-01-30 01:00:00 2.1 14 Este 20 Este 0 -- -- 92
2018-01-30 00:00:00 2.9 18 Este 20 Este 0 -- -- 87
2018-01-29 23:00:00 3.6 15 Este 21 Este 0 -- -- 84
2018-01-29 22:00:00 4.4 20 Este 28 Este 0 -- -- 78
2018-01-29 21:00:00 5.7 22 Nordeste 26 Este 0 -- -- 77
2018-01-29 20:00:00 5.1 18 Este 21 Este 0 -- -- 83
2018-01-29 19:00:00 6.1 12 Este 14 Este 0 -- -- 82
2018-01-29 18:00:00 9 11 Nordeste 15 Nordeste 0 -- -- 71
2018-01-29 17:00:00 11.1 11 Nordeste 15 Nordeste 0 -- -- 64
2018-01-29 16:00:00 11.1 6 Nordeste 13 Norte 0 -- -- 69
2018-01-29 15:00:00 10.3 6 Este 12 Este 0 -- -- 69
2018-01-29 14:00:00 9 6 Este 10 Este 0 -- -- 74
2018-01-29 13:00:00 7.9 5 Este 13 Sudeste 0 -- -- 82
2018-01-29 12:00:00 6.1 10 Este 17 Sudeste 0 -- -- 89
2018-01-29 11:00:00 3.9 10 Este 18 Este 0 -- -- 99
2018-01-29 10:00:00 1.8 12 Este 16 Este 0 -- -- 99
2018-01-29 09:00:00 -0.5 10 Este 13 Este 0 -- -- 99
2018-01-29 08:00:00 -1.2 11 Este 15 Este 0 -- -- 99
2018-01-29 07:00:00 -0.6 11 Este 16 Este 0 -- -- 99
2018-01-29 06:00:00 -0.7 14 Este 15 Este 0 -- -- 99
2018-01-29 05:00:00 0.1 13 Este 15 Este 0 -- -- 99
2018-01-29 04:00:00 0.2 9 Este 15 Este 0 -- -- 99
2018-01-29 03:00:00 1.3 14 Este 16 Este 0 -- -- 99
2018-01-29 02:00:00 0 10 Nordeste 14 Este 0 -- -- 99
2018-01-29 01:00:00 1.7 14 Sudeste 19 Este 0 -- -- 99
2018-01-29 00:00:00 2.5 18 Este 21 Este 0 -- -- 99
2018-01-28 23:00:00 1.7 10 Este 18 Este 0 -- -- 99
2018-01-28 22:00:00 2.4 10 Este 14 Este 0 -- -- 99
2018-01-28 21:00:00 3.5 12 Este 16 Este 0 -- -- 96
2018-01-28 20:00:00 4.2 9 Este 15 Este 0 -- -- 90
2018-01-28 19:00:00 5.2 13 Este 18 Este 0 -- -- 84
2018-01-28 18:00:00 7.8 15 Nordeste 21 Este 0 -- -- 72
2018-01-28 17:00:00 9.9 18 Nordeste 26 Nordeste 0 -- -- 64
2018-01-28 16:00:00 10.6 17 Nordeste 24 Nordeste 0 -- -- 62
2018-01-28 15:00:00 10.5 16 Este 25 Este 0 -- -- 62
2018-01-28 14:00:00 9.8 15 Este 22 Este 0 -- -- 67
2018-01-28 13:00:00 7.5 13 Este 18 Este 0 -- -- 78
2018-01-28 12:00:00 4.4 15 Este 20 Este 0 -- -- 87
2018-01-28 11:00:00 2.1 15 Este 22 Este 0 -- -- 94
2018-01-28 10:00:00 0.4 17 Este 20 Este 0 -- -- 99
2018-01-28 09:00:00 -1.3 15 Este 20 Este 0 -- -- 99
2018-01-28 08:00:00 -1.6 17 Este 21 Este 0 -- -- 99
2018-01-28 07:00:00 -1.6 18 Este 24 Este 0 -- -- 99
2018-01-28 06:00:00 -2.1 18 Este 21 Este 0 -- -- 99
2018-01-28 05:00:00 -1.8 19 Este 22 Este 0 -- -- 99
2018-01-28 04:00:00 -2 19 Este 21 Este 0 -- -- 99
2018-01-28 03:00:00 -1.2 18 Este 24 Este 0 -- -- 99
2018-01-28 02:00:00 -0.4 18 Este 23 Este 0 -- -- 99
2018-01-28 01:00:00 -0.6 10 Este 18 Este 0 -- -- 98
2018-01-28 00:00:00 -0.1 12 Este 29 Este 0 -- -- 95
2018-01-27 23:00:00 0 17 Nordeste 25 Este 0 -- -- 96
2018-01-27 22:00:00 0.1 14 Este 32 Nordeste 0 -- -- 94
2018-01-27 21:00:00 1.6 28 Nordeste 40 Nordeste 0 -- -- 87
2018-01-27 20:00:00 1.9 20 Este 33 Nordeste 0 -- -- 88
2018-01-27 19:00:00 2.8 28 Nordeste 40 Nordeste 0 -- -- 84
2018-01-27 18:00:00 3.3 25 Nordeste 38 Nordeste 0 -- -- 88
2018-01-27 17:00:00 4.9 28 Nordeste 45 Nordeste 0 -- -- 80
2018-01-27 16:00:00 5.6 26 Este 44 Este 0 -- -- 83
2018-01-27 15:00:00 5.7 30 Nordeste 44 Nordeste 0 -- -- 83
2018-01-27 14:00:00 4.2 8 Noroeste 16 Noroeste 0 -- -- 89
2018-01-27 13:00:00 4.1 8 Norte 13 Oeste 0 -- -- 89
2018-01-27 12:00:00 1.9 10 Noroeste 14 Noroeste 0 -- -- 98
2018-01-27 11:00:00 1.2 0 Calma 6 Sudeste 0 -- -- 99
2018-01-27 10:00:00 -0.2 4 Norte 10 Noroeste 0 -- -- 99
2018-01-27 09:00:00 -1.2 4 Noroeste 9 Noroeste 0 -- -- 99
2018-01-27 08:00:00 -2.3 7 Noroeste 15 Noroeste 0 -- -- 99
2018-01-27 07:00:00 -2.4 13 Noroeste 15 Noroeste 0 -- -- 99
2018-01-27 06:00:00 -2.3 8 Noroeste 10 Noroeste 0 -- -- 99
2018-01-27 05:00:00 -2 7 Noroeste 9 Oeste 0 -- -- 99
2018-01-27 04:00:00 -2.2 9 Oeste 12 Noroeste 0 -- -- 99
2018-01-27 03:00:00 -1.7 11 Noroeste 16 Noroeste 0 -- -- 99
2018-01-27 02:00:00 -1.6 14 Noroeste 18 Noroeste 0 -- -- 99
2018-01-27 01:00:00 -1 12 Norte 15 Norte 0 -- -- 99
2018-01-27 00:00:00 -1.4 12 Norte 15 Noroeste 0 -- -- 99
2018-01-26 23:00:00 -1 13 Noroeste 14 Noroeste 0 -- -- 99
2018-01-26 22:00:00 -0.5 10 Noroeste 16 Noroeste 0 -- -- 99
2018-01-26 21:00:00 -0.6 11 Norte 17 Noroeste 0 -- -- 99
2018-01-26 20:00:00 0.5 9 Norte 14 Nordeste 0 -- -- 99
2018-01-26 19:00:00 1.9 11 Nordeste 23 Nordeste 0 -- -- 92
2018-01-26 18:00:00 4.1 9 Nordeste 30 Norte 0 -- -- 88
2018-01-26 17:00:00 4.5 23 Noroeste 41 Norte 0 -- -- 83
2018-01-26 16:00:00 5.5 29 Noroeste 39 Norte 0 -- -- 79
2018-01-26 15:00:00 5 25 Noroeste 33 Noroeste 0 -- -- 86
2018-01-26 14:00:00 4.5 22 Noroeste 36 Noroeste 0 -- -- 87
2018-01-26 13:00:00 4 29 Noroeste 37 Noroeste 0 -- -- 95
2018-01-26 12:00:00 3 22 Noroeste 29 Noroeste 0 -- -- 99
2018-01-26 11:00:00 0.6 12 Noroeste 22 Noroeste 0 -- -- 99
2018-01-26 10:00:00 -0.5 13 Noroeste 22 Noroeste 0 -- -- 99
2018-01-26 09:00:00 -1.6 15 Noroeste 22 Noroeste 0 -- -- 99
2018-01-26 08:00:00 -1.6 15 Noroeste 25 Noroeste 0 -- -- 99
2018-01-26 07:00:00 -1.4 15 Noroeste 26 Noroeste 0 -- -- 99
2018-01-26 06:00:00 -1.3 21 Noroeste 26 Noroeste 0 -- -- 99
2018-01-26 05:00:00 -1.3 18 Noroeste 26 Noroeste 0 -- -- 99
2018-01-26 04:00:00 -1.2 17 Noroeste 25 Noroeste 0 -- -- 99
2018-01-26 03:00:00 -1.1 15 Noroeste 21 Noroeste 0 -- -- 99
2018-01-26 02:00:00 -1.1 13 Noroeste 18 Oeste 0 -- -- 99
2018-01-26 01:00:00 -0.2 12 Oeste 14 Oeste 0 -- -- 99
2018-01-26 00:00:00 -0.1 9 Oeste 10 Oeste 0 -- -- 99
2018-01-25 23:00:00 0.2 5 Sudoeste 6 Sudoeste 0 -- -- 99
2018-01-25 22:00:00 0.8 7 Este 12 Este 0 -- -- 99
2018-01-25 21:00:00 1 9 Nordeste 17 Este 0 -- -- 99
2018-01-25 20:00:00 1.3 9 Este 21 Este 0 -- -- 99
2018-01-25 19:00:00 2.1 10 Nordeste 31 Nordeste 0 -- -- 99
2018-01-25 18:00:00 3.9 10 Noroeste 20 Noroeste 0 -- -- 99
2018-01-25 17:00:00 4.3 12 Oeste 18 Oeste 0 -- -- 99
2018-01-25 16:00:00 4.2 12 Oeste 28 Noroeste 0 -- -- 99
2018-01-25 15:00:00 4.3 21 Noroeste 32 Noroeste 0 -- -- 99
2018-01-25 14:00:00 4.1 28 Oeste 45 Oeste 0 -- -- 99
2018-01-25 13:00:00 4.6 23 Sudoeste 32 Sudoeste 0 -- -- 99
2018-01-25 12:00:00 3.8 26 Sudoeste 32 Sudoeste 0 -- -- 99
2018-01-25 11:00:00 3.2 23 Sudoeste 34 Sudoeste 0 -- -- 99
2018-01-25 10:00:00 3.1 20 Sur 25 Sur 0 -- -- 99
2018-01-25 09:00:00 2.9 18 Sudoeste 23 Sur 0 -- -- 99
2018-01-25 08:00:00 2.9 15 Sudoeste 20 Sudoeste 0 -- -- 99
2018-01-25 07:00:00 2.6 16 Sudoeste 23 Sudoeste 0 -- -- 99
2018-01-25 06:00:00 2 14 Sur 19 Sur 0 -- -- 99
2018-01-25 05:00:00 1.8 14 Sur 18 Sudoeste 0 -- -- 99
2018-01-25 04:00:00 2.2 15 Sur 19 Sur 0 -- -- 99
2018-01-25 03:00:00 1.9 15 Sudoeste 22 Sudoeste 0 -- -- 99
2018-01-25 02:00:00 1.8 17 Sudoeste 20 Sudoeste 0 -- -- 99
2018-01-25 01:00:00 1.6 15 Sur 18 Sur 0 -- -- 99
2018-01-25 00:00:00 1.6 12 Sur 16 Sur 0 -- -- 99
2018-01-24 23:00:00 1.7 11 Sur 13 Sur 0 -- -- 99
2018-01-24 22:00:00 2.5 4 Sudoeste 11 Sudoeste 0 -- -- 99
2018-01-24 21:00:00 1.5 8 Sudoeste 12 Sudoeste 0 -- -- 99
2018-01-24 20:00:00 1.7 12 Sudoeste 12 Sudoeste 0 -- -- 99
2018-01-24 19:00:00 2.8 13 Oeste 15 Noroeste 0 -- -- 99
2018-01-24 18:00:00 4 12 Noroeste 15 Noroeste 0 -- -- 99
2018-01-24 17:00:00 6.8 8 Oeste 16 Noroeste 0 -- -- 91
2018-01-24 16:00:00 6.8 10 Noroeste 15 Noroeste 0 -- -- 92
2018-01-24 15:00:00 5.5 10 Oeste 17 Oeste 0 -- -- 97
2018-01-24 14:00:00 4.1 10 Oeste 19 Oeste 0 -- -- 99
2018-01-24 13:00:00 2.9 9 Sudoeste 15 Oeste 0 -- -- 99
2018-01-24 12:00:00 1.7 9 Oeste 14 Oeste 0 -- -- 99
2018-01-24 11:00:00 1.1 8 Oeste 15 Sudoeste 0 -- -- 99
2018-01-24 10:00:00 0.8 9 Sudoeste 14 Sudoeste 0 -- -- 99
2018-01-24 09:00:00 0.5 4 Oeste 12 Sudoeste 0 -- -- 99
2018-01-24 08:00:00 0.6 5 Sur 12 Oeste 0 -- -- 99
2018-01-24 07:00:00 0.6 5 Sudoeste 10 Sudoeste 0 -- -- 99
2018-01-24 06:00:00 1.1 5 Sudoeste 11 Oeste 0 -- -- 99
2018-01-24 05:00:00 1.6 5 Sudoeste 10 Oeste 0 -- -- 99
2018-01-24 04:00:00 1.5 6 Oeste 10 Noroeste 0 -- -- 99
2018-01-24 03:00:00 1.7 3 Noroeste 8 Sur 0 -- -- 99
2018-01-24 02:00:00 2.2 2 Sudeste 7 Sudoeste 0 -- -- 99
2018-01-24 01:00:00 2.7 4 Sur 6 Sur 0 -- -- 99
2018-01-24 00:00:00 2.9 0 Calma 8 Sudeste 0 -- -- 99
2018-01-23 23:00:00 3.2 4 Este 9 Sudeste 0 -- -- 99
2018-01-23 22:00:00 3.6 3 Sudeste 8 Sudeste 0 -- -- 99
2018-01-23 21:00:00 3.6 3 Norte 7 Nordeste 0 -- -- 99
2018-01-23 20:00:00 3.9 2 Nordeste 8 Nordeste 0 -- -- 99
2018-01-23 19:00:00 4.2 5 Este 9 Este 0 -- -- 99
2018-01-23 18:00:00 4.4 0 Calma 7 Este 0 -- -- 99
2018-01-23 17:00:00 4.7 5 Nordeste 10 Norte 0 -- -- 99
2018-01-23 16:00:00 4.9 4 Sudoeste 10 Noroeste 0 -- -- 99
2018-01-23 15:00:00 5.3 2 Oeste 9 Noroeste 0 -- -- 99
2018-01-23 14:00:00 5 0 Calma 10 Oeste 0 -- -- 99
2018-01-23 13:00:00 4.6 2 Noroeste 8 Noroeste 0 -- -- 99
2018-01-23 12:00:00 4.3 2 Este 10 Sur 0.2 -- -- 99
2018-01-23 11:00:00 4 0 Calma 8 Oeste 0 -- -- 99
2018-01-23 10:00:00 3.8 5 Noroeste 9 Noroeste 0 -- -- 99
2018-01-23 09:00:00 3.8 0 Calma 7 Norte 0 -- -- 99
2018-01-23 08:00:00 3.9 5 Nordeste 9 Nordeste 0 -- -- 99
2018-01-23 07:00:00 4 6 Nordeste 10 Nordeste 0 -- -- 99
2018-01-23 06:00:00 4.1 7 Nordeste 9 Nordeste 0 -- -- 99
2018-01-23 05:00:00 4.8 0 Calma 9 Norte 0 -- -- 99
2018-01-23 04:00:00 5 0 Calma 6 Norte 0 -- -- 99
2018-01-23 03:00:00 4.9 2 Norte 7 Norte 0 -- -- 99
2018-01-23 02:00:00 5.5 0 Calma 10 Sudeste 0 -- -- 99
2018-01-23 01:00:00 4.9 0 Calma 10 Sudeste 0 -- -- 99
2018-01-23 00:00:00 4.7 3 Sudeste 8 Sudeste 0 -- -- 99
2018-01-22 23:00:00 4.9 3 Sudeste 10 Este 0 -- -- 99
2018-01-22 22:00:00 5.4 4 Este 10 Sudeste 0 -- -- 99
2018-01-22 21:00:00 5.4 0 Calma 9 Nordeste 0 -- -- 99
2018-01-22 20:00:00 5.5 0 Calma 9 Sudeste 0 -- -- 99
2018-01-22 19:00:00 6 5 Este 9 Nordeste 0 -- -- 99
2018-01-22 18:00:00 6.3 3 Norte 6 Norte 0 -- -- 99
2018-01-22 17:00:00 6.4 3 Sudoeste 10 Sudoeste 0 -- -- 99
2018-01-22 16:00:00 6.3 4 Oeste 12 Sudoeste 0 -- -- 99
2018-01-22 15:00:00 6.1 6 Oeste 13 Noroeste 0 -- -- 99
2018-01-22 14:00:00 5.6 8 Oeste 17 Oeste 0 -- -- 99
2018-01-22 13:00:00 5.2 7 Sudoeste 17 Oeste 0 -- -- 99
2018-01-22 12:00:00 5.1 10 Oeste 20 Sudoeste 0 -- -- 99
2018-01-22 11:00:00 4.9 17 Sudoeste 27 Sudoeste 0 -- -- 99
2018-01-22 10:00:00 4.9 19 Sudoeste 26 Sudoeste 0 -- -- 99
2018-01-22 09:00:00 3.9 11 Sudoeste 17 Sudoeste 0 -- -- 99
2018-01-22 08:00:00 3.1 14 Sudoeste 21 Sudoeste 0 -- -- 99
2018-01-22 07:00:00 2.7 17 Sudoeste 21 Sudoeste 0 -- -- 99
2018-01-22 06:00:00 2.6 16 Sudoeste 21 Sudoeste 0 -- -- 99
2018-01-22 05:00:00 2.8 15 Sudoeste 21 Sudoeste 0 -- -- 99
2018-01-22 04:00:00 3.3 15 Sudoeste 22 Sudoeste 0 -- -- 99
2018-01-22 03:00:00 3 14 Sudoeste 18 Sudoeste 0 -- -- 99
2018-01-22 02:00:00 1.6 14 Sudoeste 19 Sudoeste 0 -- -- 99
2018-01-22 01:00:00 2.2 14 Sudoeste 21 Sudoeste 0 -- -- 99
2018-01-22 00:00:00 4.2 17 Sudoeste 42 Sudoeste 0 -- -- 99